Tiempo atmosférico en la estación meteorológica de Tuineje, Las Palmas (1 m.)



Fecha
DESCASC
Temp. máxima en grados centígrados (hora)
DESCASC
Temp. mínima en grados centígrados (hora)
DESCASC
Temp. media en grados centígrados
DESCASC
Racha de viento máxima en m/sg (hora)
DESCASC
Velocidad máxima media en intervalos de 10 minutos(hora)
DESCASC
Precipitaciones diarias en mm
DESCASC
Precipitaciones de 00:00 a 06:00 en mm
DESCASC
Precipitaciones de 06:00 a 12:00 en mm
DESCASC
Precipitaciones de 12:00 a 18:00 en mm
DESCASC
Precipitaciones de 18:00 a 24:00 en mm
DESCASC

Gráficas

Temp. máximas Temp. mínimas Temp. medias Precipitaciones Rachas de viento máximas Velocidades máximas media en intervalos de 10 minutos

Datos horarios

Fecha y hora oficial Temperatura (ºC) Velocidad del viento (km/h) Dirección del viento Racha (km/h) Dirección de racha Precipitación (mm) Presión (hPa) Tendencia (hPa) Humedad (%)
2020-04-01 23:00:00 18.6 12 Nordeste 19 Nordeste 0 -- -- 70
2020-04-01 22:00:00 19 10 Nordeste 18 Nordeste 0 -- -- 70
2020-04-01 21:00:00 19.3 13 Nordeste 23 Este 0 -- -- 70
2020-04-01 20:00:00 19.3 13 Este 24 Este 0 -- -- 75
2020-04-01 19:00:00 20.3 10 Este 19 Este 0 -- -- 70
2020-04-01 18:00:00 21 8 Sudeste 15 Este 0 -- -- 67
2020-04-01 17:00:00 21.6 7 Sudeste 11 Sudeste 0 -- -- 65
2020-04-01 16:00:00 21.5 8 Sudeste 15 Sudeste 0 -- -- 64
2020-04-01 15:00:00 21.5 9 Sudeste 16 Este 0 -- -- 65
2020-04-01 14:00:00 21.7 8 Sudeste 20 Este 0 -- -- 63
2020-04-01 13:00:00 21.6 9 Sudeste 21 Este 0 -- -- 65
2020-04-01 12:00:00 22 6 Sudeste 15 Este 0 -- -- 62
2020-04-01 11:00:00 20.8 6 Sudeste 10 Sudeste 0 -- -- 66
2020-04-01 10:00:00 18.8 6 Nordeste 13 Nordeste 0 -- -- 71
2020-04-01 09:00:00 16.1 7 Nordeste 11 Norte 0 -- -- 78
2020-04-01 08:00:00 14.2 8 Nordeste 9 Nordeste 0 -- -- 83
2020-04-01 07:00:00 14.9 5 Norte 9 Nordeste 0 -- -- 82
2020-04-01 06:00:00 14.7 2 Norte 8 Nordeste 0 -- -- 83
2020-04-01 05:00:00 15.2 5 Nordeste 10 Nordeste 0 -- -- 81
2020-04-01 04:00:00 15.7 6 Nordeste 12 Nordeste 0 -- -- 80
2020-04-01 03:00:00 15.9 4 Nordeste 6 Nordeste 0 -- -- 76
2020-04-01 02:00:00 17 5 Nordeste 7 Norte 0 -- -- 75
2020-04-01 01:00:00 17.8 3 Norte 8 Noroeste 0 -- -- 73
2020-04-01 00:00:00 18.2 3 Nordeste 14 Noroeste 0 -- -- 71
2020-03-31 23:00:00 19 9 Noroeste 16 Norte 0 -- -- 69
2020-03-31 22:00:00 19.5 10 Norte 20 Norte 0 -- -- 65
2020-03-31 21:00:00 19.7 13 Norte 22 Noroeste 0 -- -- 65
2020-03-31 20:00:00 20.5 13 Norte 32 Noroeste 0 -- -- 61
2020-03-31 19:00:00 21.8 17 Norte 34 Norte 0 -- -- 55
2020-03-31 18:00:00 24.3 9 Noroeste 34 Norte 0 -- -- 47
2020-03-31 17:00:00 24.2 13 Noroeste 42 Norte 0 -- -- 47
2020-03-31 16:00:00 22.1 19 Sudoeste 32 Sudoeste 0 -- -- 68
2020-03-31 15:00:00 23 23 Sudoeste 35 Sudoeste 0 -- -- 67
2020-03-31 14:00:00 22.5 22 Sudoeste 37 Sudoeste 0 -- -- 64
2020-03-31 13:00:00 21.5 9 Sudoeste 22 Sudoeste 0 -- -- 68
2020-03-31 12:00:00 22.6 13 Sur 21 Sudoeste 0 -- -- 69
2020-03-31 11:00:00 21.5 14 Sudoeste 17 Sudoeste 0 -- -- 69
2020-03-31 10:00:00 21.1 5 Sudoeste 7 Sudoeste 0 -- -- 72
2020-03-31 09:00:00 19.2 3 Nordeste 9 Nordeste 0 -- -- 75
2020-03-31 08:00:00 16.2 5 Nordeste 6 Norte 0 -- -- 83
2020-03-31 07:00:00 17.7 6 Oeste 16 Oeste 0 -- -- 82
2020-03-31 06:00:00 17.8 12 Oeste 17 Oeste 0 -- -- 83
2020-03-31 05:00:00 18 9 Sudoeste 13 Sudoeste 0 -- -- 83
2020-03-31 04:00:00 17 0 Calma 5 Norte 0 -- -- 79
2020-03-31 03:00:00 16.3 6 Norte 8 Norte 0 -- -- 78
2020-03-31 02:00:00 18 5 Oeste 9 Sudoeste 0 -- -- 81
2020-03-31 01:00:00 18 0 Calma 4 Sur 0 -- -- 75
2020-03-31 00:00:00 18.6 2 Norte 10 Oeste 0 -- -- 73
2020-03-30 23:00:00 18.9 7 Oeste 15 Oeste 0 -- -- 72
2020-03-30 22:00:00 19 5 Oeste 20 Oeste 0 -- -- 70
2020-03-30 21:00:00 19.5 7 Oeste 31 Oeste 0 -- -- 67
2020-03-30 20:00:00 20.1 14 Oeste 26 Noroeste 0 -- -- 64
2020-03-30 19:00:00 22.2 7 Noroeste 24 Oeste 0 -- -- 57
2020-03-30 18:00:00 22.4 17 Sudoeste 28 Oeste 0 -- -- 60
2020-03-30 17:00:00 22.8 13 Sudoeste 32 Sudoeste 0 -- -- 59
2020-03-30 16:00:00 21.6 24 Sudoeste 32 Sudoeste 0 -- -- 66
2020-03-30 15:00:00 21.9 23 Sudoeste 30 Sudoeste 0 -- -- 64
2020-03-30 14:00:00 21.6 23 Sudoeste 31 Sudoeste 0 -- -- 64
2020-03-30 13:00:00 21.5 16 Sudoeste 24 Sudoeste 0 -- -- 65
2020-03-30 12:00:00 21 14 Sudoeste 20 Sudoeste 0 -- -- 65
2020-03-30 11:00:00 20.8 10 Sur 13 Sur 0 -- -- 68
2020-03-30 10:00:00 18.9 3 Nordeste 9 Norte 0 -- -- 68
2020-03-30 09:00:00 16 5 Nordeste 14 Norte 0 -- -- 74
2020-03-30 08:00:00 12.4 9 Norte 14 Norte 0 -- -- 81
2020-03-30 07:00:00 12.8 9 Nordeste 12 Norte 0 -- -- 79
2020-03-30 06:00:00 13.7 9 Norte 12 Norte 0 -- -- 77
2020-03-30 05:00:00 13.9 9 Norte 12 Norte 0 -- -- 76
2020-03-30 04:00:00 14.5 7 Norte 9 Nordeste 0 -- -- 75
2020-03-30 03:00:00 14.9 7 Norte 8 Nordeste 0 -- -- 74
2020-03-30 02:00:00 15.5 5 Norte 8 Nordeste 0 -- -- 72
2020-03-30 01:00:00 16.1 6 Nordeste 11 Norte 0 -- -- 71
2020-03-30 00:00:00 17.3 7 Norte 9 Norte 0 -- -- 67
2020-03-29 23:00:00 17.8 5 Norte 17 Norte 0 -- -- 66
2020-03-29 22:00:00 18.1 8 Norte 20 Norte 0 -- -- 66
2020-03-29 21:00:00 18.9 9 Norte 21 Este 0 -- -- 62
2020-03-29 20:00:00 18.7 14 Este 30 Este 0 -- -- 71
2020-03-29 19:00:00 21 15 Norte 30 Sudoeste 0 -- -- 48
2020-03-29 18:00:00 21.4 20 Sudoeste 30 Sudoeste 0 -- -- 59
2020-03-29 17:00:00 20.2 17 Sudoeste 22 Sudoeste 0 -- -- 67
2020-03-29 16:00:00 21.7 14 Sur 17 Sur 0 -- -- 62
2020-03-29 15:00:00 19.6 10 Sudeste 14 Sur 0 -- -- 68
2020-03-29 14:00:00 21.3 9 Sur 14 Sudeste 0 -- -- 63
2020-03-29 13:00:00 19.8 10 Sudeste 14 Sudeste 0 -- -- 65
2020-03-29 12:00:00 20.8 8 Sudeste 17 Sudeste 0 -- -- 64
2020-03-29 11:00:00 19.4 8 Este 14 Nordeste 0 -- -- 66
2020-03-29 10:00:00 17.8 6 Nordeste 12 Nordeste 0 -- -- 71
2020-03-29 09:00:00 14.1 9 Norte 14 Norte 0 -- -- 80
2020-03-29 08:00:00 12 10 Norte 13 Norte 0 -- -- 84
2020-03-29 07:00:00 12.1 9 Norte 13 Norte 0 -- -- 82
2020-03-29 06:00:00 13.2 8 Norte 11 Nordeste 0 -- -- 81
2020-03-29 05:00:00 13.1 8 Norte 11 Norte 0 -- -- 83
2020-03-29 04:00:00 14 7 Norte 11 Nordeste 0 -- -- 83
2020-03-29 00:00:00 16.7 8 Nordeste 20 Norte 0 -- -- 77
2020-03-28 23:00:00 17.4 8 Norte 19 Norte 0 -- -- 74
2020-03-28 22:00:00 18.1 10 Norte 19 Norte 0 -- -- 73
2020-03-28 21:00:00 18.3 10 Norte 17 Este 0 -- -- 75
2020-03-28 20:00:00 18.4 7 Este 13 Nordeste 0 -- -- 75
2020-03-28 19:00:00 18.6 4 Sudeste 7 Sudeste 0 -- -- 72
2020-03-28 18:00:00 18.9 4 Sur 9 Sudeste 0 -- -- 71
2020-03-28 17:00:00 19.2 5 Sudeste 11 Sudeste 0 -- -- 70
2020-03-28 16:00:00 19.5 4 Sudeste 10 Este 0 -- -- 67
2020-03-28 15:00:00 20.1 5 Sudeste 9 Sudoeste 0 -- -- 67
2020-03-28 14:00:00 18.9 5 Sudeste 10 Sur 0 -- -- 70
2020-03-28 13:00:00 19.1 7 Sudeste 14 Sudeste 0 -- -- 68
2020-03-28 12:00:00 19.2 8 Sudeste 15 Este 0 -- -- 68
2020-03-28 11:00:00 20.7 7 Sudeste 14 Sudeste 0 -- -- 62
2020-03-28 10:00:00 20.4 8 Este 17 Este 0 -- -- 62
2020-03-28 09:00:00 18.4 9 Nordeste 14 Nordeste 0 -- -- 69
2020-03-28 08:00:00 17.9 6 Noroeste 18 Norte 0 -- -- 72
2020-03-28 07:00:00 14.9 8 Norte 15 Norte 0 -- -- 88
2020-03-28 06:00:00 14 8 Norte 12 Norte 0 -- -- 89
2020-03-28 05:00:00 13.8 8 Nordeste 11 Nordeste 0 -- -- 89
2020-03-28 04:00:00 14.8 9 Nordeste 11 Nordeste 0 -- -- 87
2020-03-28 03:00:00 15.9 6 Norte 15 Sudoeste 0 -- -- 82
2020-03-28 02:00:00 16.7 12 Sudoeste 15 Sudoeste 1.2 -- -- 79
2020-03-28 01:00:00 16.6 0 Calma 10 Nordeste 0 -- -- 75
2020-03-28 00:00:00 17.1 4 Norte 12 Norte 0 -- -- 73
2020-03-27 23:00:00 17.5 6 Norte 14 Noroeste 0 -- -- 72
2020-03-27 22:00:00 17.8 5 Noroeste 14 Norte 0 -- -- 69
2020-03-27 21:00:00 18.1 6 Norte 17 Norte 0 -- -- 69
2020-03-27 20:00:00 18.6 12 Norte 24 Norte 0 -- -- 65
2020-03-27 19:00:00 19.7 9 Noroeste 24 Norte 0 -- -- 57
2020-03-27 18:00:00 21.5 8 Sudoeste 21 Oeste 0 -- -- 56
2020-03-27 17:00:00 20.9 10 Oeste 25 Este 0 -- -- 51
2020-03-27 16:00:00 20.9 12 Sur 35 Sudoeste 0 -- -- 56
2020-03-27 15:00:00 22.8 7 Sur 31 Norte 0 -- -- 48
2020-03-27 14:00:00 23.3 14 Noroeste 35 Oeste 0 -- -- 47
2020-03-27 13:00:00 22.8 11 Noroeste 29 Norte 0 -- -- 44
2020-03-27 12:00:00 21.9 12 Noroeste 27 Oeste 0 -- -- 51
2020-03-27 11:00:00 21 12 Noroeste 26 Oeste 0 -- -- 49
2020-03-27 10:00:00 20.3 8 Noroeste 28 Norte 0 -- -- 53
2020-03-27 09:00:00 18.9 11 Norte 20 Norte 0 -- -- 63
2020-03-27 08:00:00 17.5 10 Norte 20 Noroeste 0 -- -- 71
2020-03-27 07:00:00 16.3 8 Norte 20 Noroeste 0 -- -- 74
2020-03-27 06:00:00 16.3 9 Norte 17 Norte 0 -- -- 73
2020-03-27 05:00:00 16.3 6 Nordeste 21 Oeste 0 -- -- 72
2020-03-27 04:00:00 16.2 6 Nordeste 17 Norte 0 -- -- 75
2020-03-27 03:00:00 16.6 9 Norte 17 Norte 0 -- -- 72
2020-03-27 02:00:00 16.8 8 Norte 16 Norte 0 -- -- 70
2020-03-27 01:00:00 15.9 9 Nordeste 14 Norte 0 -- -- 72
2020-03-27 00:00:00 15.6 7 Nordeste 16 Norte 0 -- -- 70
2020-03-26 23:00:00 17 9 Norte 14 Noroeste 0 -- -- 67
2020-03-26 22:00:00 17.1 7 Norte 17 Norte 0 -- -- 64
2020-03-26 21:00:00 17.5 9 Norte 23 Noroeste 0 -- -- 65
2020-03-26 20:00:00 17.8 14 Norte 28 Norte 0 -- -- 63
2020-03-26 19:00:00 18.9 15 Norte 29 Norte 0 -- -- 52
2020-03-26 18:00:00 19.9 15 Norte 29 Norte 0 -- -- 50
2020-03-26 17:00:00 19.6 6 Este 23 Este 0 -- -- 58
2020-03-26 16:00:00 19 12 Este 23 Este 0 -- -- 64
2020-03-26 15:00:00 20.8 9 Este 17 Este 0 -- -- 59
2020-03-26 14:00:00 20.1 8 Sudeste 13 Sudeste 0 -- -- 57
2020-03-26 13:00:00 20 10 Sur 15 Sur 0 -- -- 59
2020-03-26 12:00:00 20.7 10 Sur 14 Sur 0 -- -- 55
2020-03-26 11:00:00 19.8 8 Sudeste 15 Sudeste 0 -- -- 58
2020-03-26 10:00:00 19.5 7 Sudeste 13 Sudeste 0 -- -- 59
2020-03-26 09:00:00 17.5 7 Nordeste 10 Nordeste 0 -- -- 61
2020-03-26 08:00:00 14 8 Norte 12 Norte 0 -- -- 69
2020-03-26 07:00:00 11.7 8 Nordeste 13 Norte 0 -- -- 77
2020-03-26 06:00:00 12 9 Norte 14 Norte 0 -- -- 78
2020-03-26 05:00:00 12.5 10 Norte 13 Nordeste 0 -- -- 76
2020-03-26 04:00:00 13.2 9 Norte 11 Norte 0 -- -- 76
2020-03-26 03:00:00 14.1 6 Nordeste 11 Nordeste 0 -- -- 75
2020-03-26 02:00:00 15.1 8 Nordeste 10 Nordeste 0 -- -- 74
2020-03-26 01:00:00 16 3 Norte 10 Norte 0 -- -- 71
2020-03-26 00:00:00 16.5 8 Norte 21 Norte 0 -- -- 70
2020-03-25 23:00:00 17.3 7 Norte 18 Norte 0 -- -- 69
2020-03-25 22:00:00 17.7 12 Norte 22 Norte 0 -- -- 67
2020-03-25 21:00:00 18 12 Nordeste 19 Nordeste 0 -- -- 66
2020-03-25 20:00:00 18.1 9 Este 22 Este 0 -- -- 72
2020-03-25 19:00:00 18.2 8 Este 17 Este 0 -- -- 72
2020-03-25 18:00:00 18.5 7 Este 17 Este 0 -- -- 70
2020-03-25 17:00:00 19 5 Sudeste 12 Este 0 -- -- 65
2020-03-25 16:00:00 19 8 Sudeste 14 Sudeste 0 -- -- 61
2020-03-25 15:00:00 19.6 9 Sudeste 15 Sur 0 -- -- 58
2020-03-25 14:00:00 19.8 11 Sur 17 Sudeste 0 -- -- 59
2020-03-25 13:00:00 20 10 Sudeste 18 Sur 0 -- -- 60
2020-03-25 12:00:00 19.2 12 Este 25 Este 0 -- -- 57
2020-03-25 11:00:00 19.8 9 Sudeste 18 Este 0 -- -- 60
2020-03-25 10:00:00 19.9 9 Nordeste 19 Nordeste 0 -- -- 51
2020-03-25 09:00:00 19 3 Sur 13 Este 0 -- -- 64
2020-03-25 08:00:00 15.6 8 Nordeste 13 Nordeste 0 -- -- 77
2020-03-25 07:00:00 14.8 7 Nordeste 11 Nordeste 0 -- -- 78
2020-03-25 06:00:00 15.6 5 Nordeste 7 Nordeste 0 -- -- 77
2020-03-25 05:00:00 15.3 2 Norte 13 Noroeste 0 -- -- 77
2020-03-25 04:00:00 15.5 3 Este 10 Noroeste 0 -- -- 76
2020-03-25 03:00:00 15.5 2 Norte 14 Noroeste 0 -- -- 74
2020-03-25 02:00:00 16.3 6 Noroeste 13 Norte 0 -- -- 71
2020-03-25 01:00:00 16.4 3 Nordeste 9 Nordeste 0 -- -- 73
2020-03-25 00:00:00 16.9 5 Norte 14 Noroeste 0 -- -- 69
2020-03-24 23:00:00 17.1 7 Noroeste 14 Noroeste 0 -- -- 65
2020-03-24 22:00:00 17.7 6 Norte 14 Norte 0 -- -- 64
2020-03-24 21:00:00 18.1 7 Norte 24 Noroeste 0 -- -- 62
2020-03-24 20:00:00 18.5 13 Noroeste 37 Noroeste 0 -- -- 61
2020-03-24 19:00:00 18.8 19 Norte 47 Norte 0 -- -- 60
2020-03-24 18:00:00 19.3 25 Norte 45 Noroeste 0 -- -- 57
2020-03-24 17:00:00 20.5 17 Norte 44 Norte 0 -- -- 50
2020-03-24 16:00:00 20.3 23 Norte 41 Norte 0 -- -- 51
2020-03-24 15:00:00 22 15 Norte 49 Norte 0 -- -- 47
2020-03-24 14:00:00 21.4 24 Norte 51 Norte 0.2 -- -- 49
2020-03-24 13:00:00 21.9 19 Norte 37 Noroeste 0 -- -- 45
2020-03-24 12:00:00 20.9 21 Norte 39 Norte 0 -- -- 48
2020-03-24 11:00:00 20.7 16 Norte 38 Norte 0 -- -- 54
2020-03-24 10:00:00 19.4 16 Norte 31 Norte 0 -- -- 60
2020-03-24 09:00:00 17.2 12 Norte 43 Noroeste 0.2 -- -- 74
2020-03-24 08:00:00 17.2 16 Norte 37 Norte 0 -- -- 73
2020-03-24 07:00:00 16.4 21 Norte 35 Norte 0 -- -- 70
2020-03-24 06:00:00 16 12 Norte 23 Noroeste 0 -- -- 70
2020-03-24 05:00:00 16.1 15 Noroeste 22 Noroeste 0 -- -- 69
2020-03-24 04:00:00 16 10 Norte 20 Norte 0 -- -- 66
2020-03-24 03:00:00 16.1 9 Norte 28 Norte 0 -- -- 70
2020-03-24 02:00:00 16.6 16 Norte 41 Norte 0 -- -- 67
2020-03-24 01:00:00 17 19 Norte 40 Norte 0 -- -- 68
2020-03-24 00:00:00 16.7 10 Norte 21 Norte 0 -- -- 70
2020-03-23 23:00:00 17.1 9 Norte 26 Norte 0 -- -- 62
2020-03-23 22:00:00 17.2 7 Norte 24 Noroeste 0 -- -- 64
2020-03-23 21:00:00 17.3 9 Norte 27 Norte 0 -- -- 66
2020-03-23 20:00:00 17.6 15 Norte 32 Noroeste 0 -- -- 64
2020-03-23 19:00:00 18 14 Norte 34 Norte 0 -- -- 58
2020-03-23 18:00:00 18.5 18 Norte 41 Norte 0 -- -- 57
2020-03-23 17:00:00 19.3 24 Norte 45 Norte 0 -- -- 53
2020-03-23 16:00:00 20.2 22 Norte 45 Norte 0 -- -- 48
2020-03-23 15:00:00 19.2 22 Norte 41 Norte 0 -- -- 53
2020-03-23 14:00:00 19.3 26 Norte 45 Norte 0 -- -- 50
2020-03-23 13:00:00 19.7 23 Norte 42 Noroeste 0 -- -- 51
2020-03-23 12:00:00 17.3 22 Norte 40 Norte 0 -- -- 66
2020-03-23 11:00:00 18.8 21 Norte 39 Norte 0 -- -- 51
2020-03-23 10:00:00 17.3 15 Norte 26 Norte 0 -- -- 60
2020-03-23 09:00:00 16.2 10 Nordeste 17 Nordeste 0 -- -- 67
2020-03-23 08:00:00 14.5 7 Norte 14 Nordeste 0 -- -- 72
2020-03-23 07:00:00 14.3 6 Norte 22 Sudoeste 0 -- -- 75
2020-03-23 06:00:00 15.3 4 Noroeste 22 Norte 0 -- -- 67
2020-03-23 05:00:00 15.9 8 Noroeste 31 Oeste 0 -- -- 67
2020-03-23 04:00:00 16.2 12 Oeste 37 Oeste 0 -- -- 63
2020-03-23 03:00:00 16.1 18 Oeste 40 Oeste 0 -- -- 64
2020-03-23 02:00:00 16.1 17 Noroeste 41 Oeste 0 -- -- 67
2020-03-23 01:00:00 16.5 17 Oeste 36 Oeste 0 -- -- 69
2020-03-23 00:00:00 16.9 13 Oeste 30 Sudoeste 0 -- -- 72
2020-03-22 23:00:00 17.2 12 Oeste 28 Noroeste 0 -- -- 72
2020-03-22 22:00:00 16.6 14 Oeste 37 Noroeste 0 -- -- 72
2020-03-22 21:00:00 15.7 21 Oeste 49 Oeste 0 -- -- 73
2020-03-22 20:00:00 16.1 17 Oeste 48 Oeste 0 -- -- 74
2020-03-22 19:00:00 16.9 17 Oeste 39 Oeste 0 -- -- 74
2020-03-22 18:00:00 20.7 10 Oeste 26 Oeste 0 -- -- 49
2020-03-22 17:00:00 20 12 Oeste 31 Norte 0 -- -- 50
2020-03-22 16:00:00 21.1 13 Noroeste 36 Norte 0 -- -- 45
2020-03-22 15:00:00 21.7 14 Noroeste 38 Norte 0 -- -- 45
2020-03-22 14:00:00 21.5 11 Noroeste 36 Norte 0 -- -- 46
2020-03-22 13:00:00 21 14 Norte 40 Oeste 0 -- -- 45
2020-03-22 12:00:00 20 14 Norte 32 Norte 0 -- -- 47
2020-03-22 11:00:00 19.6 14 Norte 32 Nordeste 0 -- -- 48
2020-03-22 10:00:00 19.4 10 Noroeste 26 Oeste 0 -- -- 51
2020-03-22 09:00:00 16.7 8 Norte 36 Noroeste 0 -- -- 67
2020-03-22 08:00:00 15.6 5 Nordeste 19 Norte 0 -- -- 69
2020-03-22 07:00:00 15.1 2 Noroeste 19 Nordeste 0 -- -- 68
2020-03-22 06:00:00 15.7 8 Noroeste 15 Norte 0 -- -- 58
2020-03-22 05:00:00 15.9 6 Norte 14 Norte 0 -- -- 59
2020-03-22 04:00:00 15.9 3 Nordeste 13 Norte 0 -- -- 62
2020-03-22 03:00:00 15.7 8 Norte 16 Norte 0 -- -- 62
2020-03-22 02:00:00 16.2 10 Norte 19 Norte 0 -- -- 57
2020-03-22 01:00:00 16.8 8 Norte 17 Norte 0 -- -- 60
2020-03-22 00:00:00 16.7 8 Norte 20 Norte 0 -- -- 53
2020-03-21 23:00:00 16.8 14 Norte 30 Norte 0 -- -- 55
2020-03-21 22:00:00 17.1 13 Norte 27 Norte 0 -- -- 57
2020-03-21 21:00:00 17.1 10 Norte 31 Norte 0 -- -- 59
2020-03-21 20:00:00 17.5 14 Norte 31 Nordeste 0 -- -- 56
2020-03-21 19:00:00 18 18 Norte 37 Norte 0 -- -- 47
2020-03-21 18:00:00 18.8 18 Norte 36 Norte 0 -- -- 44
2020-03-21 17:00:00 19.5 17 Norte 35 Norte 0 -- -- 44
2020-03-21 16:00:00 20.1 20 Norte 49 Norte 0 -- -- 40
2020-03-21 15:00:00 20.5 14 Norte 37 Norte 0 -- -- 42
2020-03-21 14:00:00 19.5 18 Norte 37 Norte 0 -- -- 48
2020-03-21 13:00:00 20.1 17 Norte 38 Norte 0 -- -- 42
2020-03-21 12:00:00 19.8 22 Norte 41 Norte 0 -- -- 41
2020-03-21 11:00:00 18.5 15 Norte 31 Norte 0 -- -- 48
2020-03-21 10:00:00 17.2 19 Norte 34 Norte 0 -- -- 57
2020-03-21 09:00:00 17.3 13 Nordeste 32 Nordeste 0 -- -- 50
2020-03-21 08:00:00 16.6 8 Noroeste 21 Norte 0 -- -- 55
2020-03-21 07:00:00 16.5 7 Norte 25 Nordeste 0 -- -- 53
2020-03-21 06:00:00 16.5 15 Nordeste 26 Nordeste 0 -- -- 53
2020-03-21 05:00:00 16.7 15 Norte 27 Norte 0 -- -- 54
2020-03-21 04:00:00 16.6 9 Norte 22 Norte 0 -- -- 66
2020-03-21 03:00:00 16.2 10 Norte 22 Noroeste 0 -- -- 69
2020-03-21 02:00:00 16.7 12 Norte 27 Norte 0 -- -- 70
2020-03-21 01:00:00 16.3 6 Nordeste 19 Norte 0 -- -- 73
2020-03-21 00:00:00 17.1 10 Norte 29 Norte 0 -- -- 69
2020-03-20 23:00:00 17.3 11 Norte 27 Norte 0 -- -- 71
2020-03-20 22:00:00 17.3 14 Norte 30 Norte 0 -- -- 73
2020-03-20 21:00:00 17.8 16 Norte 32 Norte 0 -- -- 70
2020-03-20 20:00:00 18.4 13 Norte 30 Norte 0 -- -- 64
2020-03-20 19:00:00 19 15 Norte 35 Nordeste 0 -- -- 59
2020-03-20 18:00:00 20.1 22 Norte 36 Norte 0 -- -- 51
2020-03-20 17:00:00 21.3 18 Norte 33 Norte 0 -- -- 46
2020-03-20 16:00:00 22.4 17 Norte 33 Norte 0 -- -- 44
2020-03-20 15:00:00 22.3 18 Norte 36 Nordeste 0 -- -- 49
2020-03-20 14:00:00 22.6 15 Norte 36 Nordeste 0 -- -- 48
2020-03-20 13:00:00 21.8 18 Norte 40 Norte 0 -- -- 52
2020-03-20 12:00:00 22.2 18 Norte 40 Norte 0 -- -- 51
2020-03-20 11:00:00 22.2 18 Norte 38 Norte 0 -- -- 54
2020-03-20 10:00:00 20.9 18 Norte 39 Nordeste 0 -- -- 57
2020-03-20 09:00:00 19.6 19 Norte 35 Norte 0 -- -- 64
2020-03-20 08:00:00 18.6 16 Norte 31 Norte 0 -- -- 72
2020-03-20 07:00:00 18.3 14 Norte 30 Norte 0 -- -- 72
2020-03-20 06:00:00 18.4 18 Norte 37 Norte 0 -- -- 67
2020-03-20 05:00:00 18.5 16 Norte 37 Norte 0 -- -- 69
2020-03-20 04:00:00 18.3 18 Norte 41 Norte 0 -- -- 73
2020-03-20 03:00:00 18.3 19 Norte 39 Norte 0 -- -- 73
2020-03-20 02:00:00 18.6 21 Norte 33 Norte 0 -- -- 71
2020-03-20 01:00:00 18.9 16 Norte 34 Norte 0 -- -- 67
2020-03-20 00:00:00 18.9 19 Norte 40 Noroeste 0 -- -- 68
2020-03-19 23:00:00 18.8 14 Norte 36 Noroeste 0 -- -- 66
2020-03-19 22:00:00 19 12 Norte 29 Norte 0 -- -- 65
2020-03-19 21:00:00 19.3 17 Norte 31 Norte 0 -- -- 63
2020-03-19 20:00:00 19.1 17 Norte 35 Norte 0 -- -- 67
2020-03-19 19:00:00 19.9 19 Norte 35 Norte 0 -- -- 62
2020-03-19 18:00:00 20.9 16 Norte 30 Norte 0 -- -- 56
2020-03-19 17:00:00 20.9 17 Norte 36 Norte 0 -- -- 55
2020-03-19 16:00:00 22 22 Norte 48 Norte 0 -- -- 49
2020-03-19 15:00:00 22.5 19 Norte 35 Nordeste 0 -- -- 44
2020-03-19 14:00:00 22.5 22 Norte 39 Norte 0 -- -- 44
2020-03-19 13:00:00 21.8 18 Norte 36 Norte 0 -- -- 43
2020-03-19 12:00:00 21.5 18 Norte 42 Norte 0 -- -- 48
2020-03-19 11:00:00 20.7 22 Norte 41 Nordeste 0 -- -- 51
2020-03-19 10:00:00 19.4 23 Nordeste 45 Nordeste 0 -- -- 56
2020-03-19 09:00:00 18.8 22 Norte 37 Norte 0 -- -- 65
2020-03-19 08:00:00 17.7 14 Norte 32 Norte 0 -- -- 72
2020-03-19 07:00:00 17.1 26 Norte 46 Norte 0 -- -- 79
2020-03-19 06:00:00 17.5 19 Norte 50 Norte 0 -- -- 74
2020-03-19 05:00:00 17.1 23 Norte 52 Norte 0 -- -- 71
2020-03-19 04:00:00 17.1 27 Norte 49 Norte 0 -- -- 67
2020-03-19 03:00:00 17 22 Norte 43 Norte 0 -- -- 61
2020-03-19 02:00:00 17 18 Norte 39 Norte 0 -- -- 59
2020-03-19 01:00:00 17.1 12 Norte 45 Noroeste 0 -- -- 62
2020-03-19 00:00:00 17 19 Norte 51 Norte 0 -- -- 69
2020-03-18 23:00:00 17 28 Norte 60 Norte 0 -- -- 72
2020-03-18 22:00:00 17.9 29 Norte 51 Noroeste 0 -- -- 65
2020-03-18 21:00:00 17.7 32 Norte 54 Norte 0 -- -- 61
2020-03-18 20:00:00 17.7 30 Norte 55 Norte 0 -- -- 58
2020-03-18 19:00:00 17.9 26 Norte 53 Norte 0 -- -- 62
2020-03-18 18:00:00 18.5 24 Norte 44 Noroeste 0 -- -- 57
2020-03-18 17:00:00 18.9 21 Norte 46 Norte 0 -- -- 55
2020-03-18 16:00:00 19.5 20 Norte 42 Norte 0 -- -- 52
2020-03-18 15:00:00 19 20 Norte 45 Norte 0 -- -- 57
2020-03-18 14:00:00 18.7 21 Norte 53 Norte 0 -- -- 59
2020-03-18 13:00:00 20.2 25 Norte 42 Nordeste 0 -- -- 50
2020-03-18 12:00:00 19.8 22 Norte 37 Norte 0 -- -- 49
2020-03-18 11:00:00 20.6 18 Norte 33 Norte 0 -- -- 40
2020-03-18 10:00:00 18.8 18 Norte 34 Norte 0 -- -- 48
2020-03-18 09:00:00 17.1 14 Norte 29 Nordeste 0 -- -- 65
2020-03-18 08:00:00 16.8 0 Calma 24 Norte 0 -- -- 66
2020-03-18 07:00:00 16 13 Norte 23 Norte 0 -- -- 66
2020-03-18 06:00:00 14.9 6 Nordeste 32 Nordeste 0 -- -- 74
2020-03-18 05:00:00 15.4 9 Norte 34 Norte 0 -- -- 65
2020-03-18 04:00:00 16.3 9 Norte 22 Norte 0 -- -- 60
2020-03-18 03:00:00 16.4 14 Norte 26 Norte 0 -- -- 59
2020-03-18 02:00:00 16 10 Norte 21 Norte 0 -- -- 55
2020-03-18 01:00:00 15.8 11 Norte 36 Norte 0 -- -- 67
2020-03-18 00:00:00 15.7 23 Norte 39 Norte 0 -- -- 68
2020-03-17 23:00:00 16.6 15 Norte 36 Norte 0 -- -- 59
2020-03-17 22:00:00 16.9 14 Norte 34 Norte 0 -- -- 58
2020-03-17 21:00:00 16.7 17 Norte 39 Norte 0 -- -- 64
2020-03-17 20:00:00 17.2 18 Norte 38 Noroeste 0 -- -- 58
2020-03-17 19:00:00 17.8 21 Norte 38 Norte 0 -- -- 55
2020-03-17 18:00:00 18 21 Norte 41 Norte 0 -- -- 59
2020-03-17 17:00:00 20.2 19 Norte 41 Nordeste 0 -- -- 50
2020-03-17 16:00:00 20.1 23 Nordeste 38 Nordeste 0 -- -- 48
2020-03-17 15:00:00 20.4 22 Nordeste 43 Nordeste 0 -- -- 49
2020-03-17 14:00:00 19.9 20 Nordeste 41 Este 0 -- -- 48
2020-03-17 13:00:00 18.3 24 Nordeste 36 Nordeste 0 -- -- 58
2020-03-17 12:00:00 18.7 21 Nordeste 41 Norte 0 -- -- 55
2020-03-17 11:00:00 18 22 Nordeste 44 Nordeste 0 -- -- 57
2020-03-17 10:00:00 17.4 22 Nordeste 33 Nordeste 0 -- -- 56
2020-03-17 09:00:00 16.8 13 Norte 31 Norte 0 -- -- 60
2020-03-17 08:00:00 15.6 16 Norte 44 Nordeste 0 -- -- 71
2020-03-17 07:00:00 16.1 15 Norte 29 Norte 0 -- -- 62
2020-03-17 06:00:00 16.6 17 Nordeste 33 Nordeste 0 -- -- 54
2020-03-17 05:00:00 16.5 15 Norte 31 Norte 0 -- -- 56
2020-03-17 04:00:00 16.6 18 Norte 33 Norte 0 -- -- 58
2020-03-17 03:00:00 16.6 16 Norte 39 Nordeste 0 -- -- 61
2020-03-17 02:00:00 16.8 18 Nordeste 44 Nordeste 0 -- -- 60
2020-03-17 01:00:00 16.9 18 Nordeste 45 Norte 0 -- -- 54
2020-03-17 00:00:00 17.1 20 Nordeste 35 Norte 0 -- -- 58
2020-03-16 23:00:00 17.5 22 Nordeste 36 Nordeste 0 -- -- 51
2020-03-16 22:00:00 18 18 Norte 39 Norte 0 -- -- 54
2020-03-16 21:00:00 18.3 17 Nordeste 29 Nordeste 0 -- -- 59
2020-03-16 20:00:00 17.6 22 Nordeste 36 Nordeste 0 -- -- 71
2020-03-16 19:00:00 18.9 19 Nordeste 41 Norte 0 -- -- 63
2020-03-16 18:00:00 20.2 20 Norte 43 Norte 0 -- -- 57
2020-03-16 17:00:00 19.5 20 Nordeste 35 Nordeste 0 -- -- 64
2020-03-16 16:00:00 19.9 17 Este 34 Nordeste 0 -- -- 63
2020-03-16 15:00:00 20.7 22 Nordeste 39 Nordeste 0 -- -- 55
2020-03-16 14:00:00 20.6 19 Este 41 Nordeste 0 -- -- 57
2020-03-16 13:00:00 22.2 20 Nordeste 40 Norte 0 -- -- 44
2020-03-16 12:00:00 21.3 19 Norte 40 Nordeste 0 -- -- 47
2020-03-16 11:00:00 20 22 Nordeste 36 Norte 0 -- -- 52
2020-03-16 10:00:00 19.2 24 Norte 39 Norte 0 -- -- 60
2020-03-16 09:00:00 19 15 Norte 33 Norte 0 -- -- 62
2020-03-16 08:00:00 18.5 13 Norte 27 Nordeste 0 -- -- 60
2020-03-16 07:00:00 17.4 12 Norte 38 Noroeste 0 -- -- 70
2020-03-16 06:00:00 17.6 18 Norte 40 Norte 0 -- -- 68
2020-03-16 05:00:00 17.6 18 Norte 34 Norte 0 -- -- 68
2020-03-16 04:00:00 17.1 14 Norte 28 Norte 0 -- -- 73
2020-03-16 03:00:00 17.2 11 Norte 25 Norte 0 -- -- 68
2020-03-16 02:00:00 17.8 12 Norte 30 Norte 0 -- -- 68
2020-03-16 01:00:00 17.9 12 Norte 27 Norte 0 -- -- 71
2020-03-16 00:00:00 17.9 14 Norte 25 Nordeste 0 -- -- 69
2020-03-15 23:00:00 17.7 14 Norte 31 Norte 0 -- -- 71
2020-03-15 22:00:00 17.8 14 Nordeste 36 Norte 0 -- -- 73
2020-03-15 21:00:00 18.3 15 Norte 35 Norte 0 -- -- 66
2020-03-15 20:00:00 18.7 16 Norte 34 Norte 0 -- -- 60
2020-03-15 19:00:00 18.7 19 Norte 37 Norte 0 -- -- 58
2020-03-15 18:00:00 20 18 Norte 35 Norte 0 -- -- 52
2020-03-15 17:00:00 21.2 17 Norte 34 Noroeste 0 -- -- 48
2020-03-15 16:00:00 21.3 17 Norte 39 Norte 0 -- -- 43
2020-03-15 15:00:00 21.5 18 Norte 37 Norte 0 -- -- 45
2020-03-15 14:00:00 21.5 20 Norte 38 Norte 0 -- -- 43
2020-03-15 13:00:00 22 15 Norte 30 Norte 0 -- -- 40
2020-03-15 12:00:00 20.8 14 Norte 30 Norte 0 -- -- 45
2020-03-15 11:00:00 20.9 14 Norte 26 Norte 0 -- -- 46
2020-03-15 10:00:00 19.7 13 Norte 28 Nordeste 0 -- -- 55
2020-03-15 09:00:00 18 6 Nordeste 14 Nordeste 0 -- -- 64
2020-03-15 08:00:00 16.1 4 Norte 9 Norte 0 -- -- 77
2020-03-15 07:00:00 15.6 4 Nordeste 9 Este 0 -- -- 78
2020-03-15 06:00:00 15.1 6 Nordeste 10 Norte 0 -- -- 78
2020-03-15 05:00:00 15 7 Nordeste 13 Nordeste 0 -- -- 77
2020-03-15 04:00:00 15.4 9 Nordeste 14 Norte 0 -- -- 75
2020-03-15 03:00:00 15.5 8 Nordeste 14 Norte 0 -- -- 74
2020-03-15 02:00:00 16.7 7 Norte 14 Norte 0 -- -- 69
2020-03-15 01:00:00 17.1 8 Norte 24 Norte 0 -- -- 70
2020-03-15 00:00:00 17.1 9 Norte 19 Norte 0 -- -- 72
2020-03-14 23:00:00 17.2 9 Norte 23 Norte 0 -- -- 70
2020-03-14 22:00:00 17.6 13 Norte 27 Norte 0 -- -- 68
2020-03-14 21:00:00 17.9 14 Norte 30 Norte 0 -- -- 67
2020-03-14 20:00:00 18.5 15 Norte 26 Nordeste 0 -- -- 65
2020-03-14 19:00:00 19.4 13 Nordeste 25 Este 0 -- -- 61
2020-03-14 18:00:00 18.9 17 Este 36 Este 0 -- -- 68
2020-03-14 17:00:00 18.9 20 Este 41 Este 0 -- -- 70
2020-03-14 16:00:00 19.3 22 Este 44 Este 0 -- -- 68
2020-03-14 15:00:00 19.3 24 Este 46 Este 0 -- -- 69
2020-03-14 14:00:00 20.7 22 Este 45 Este 0 -- -- 53
2020-03-14 13:00:00 20.8 21 Nordeste 37 Este 0 -- -- 50
2020-03-14 12:00:00 21.1 19 Nordeste 37 Nordeste 0 -- -- 50
2020-03-14 11:00:00 20.7 22 Nordeste 34 Nordeste 0 -- -- 54
2020-03-14 10:00:00 19.8 23 Nordeste 36 Nordeste 0 -- -- 56
2020-03-14 09:00:00 18.6 23 Nordeste 33 Nordeste 0 -- -- 62
2020-03-14 08:00:00 17.5 12 Nordeste 25 Nordeste 0 -- -- 69
2020-03-14 07:00:00 17 10 Nordeste 19 Norte 0 -- -- 72
2020-03-14 06:00:00 17 12 Norte 20 Nordeste 0 -- -- 75
2020-03-14 05:00:00 17 9 Norte 17 Nordeste 0 -- -- 74
2020-03-14 04:00:00 17.2 13 Nordeste 24 Norte 0 -- -- 72
2020-03-14 03:00:00 17.6 18 Nordeste 31 Nordeste 0 -- -- 71
2020-03-14 02:00:00 17.8 15 Nordeste 28 Norte 0 -- -- 73
2020-03-14 01:00:00 17.8 19 Nordeste 35 Nordeste 0 -- -- 71
2020-03-14 00:00:00 18 21 Nordeste 31 Norte 0 -- -- 71
2020-03-13 23:00:00 18.1 20 Nordeste 31 Nordeste 0 -- -- 70
2020-03-13 22:00:00 18.4 17 Nordeste 33 Nordeste 0 -- -- 71
2020-03-13 21:00:00 18.7 21 Nordeste 31 Nordeste 0 -- -- 73
2020-03-13 20:00:00 18.9 17 Nordeste 28 Nordeste 0 -- -- 71
2020-03-13 19:00:00 19.3 18 Nordeste 28 Nordeste 0 -- -- 68
2020-03-13 18:00:00 20.3 17 Nordeste 31 Nordeste 0 -- -- 64
2020-03-13 17:00:00 20.8 19 Nordeste 32 Nordeste 0 -- -- 63
2020-03-13 16:00:00 21.5 19 Nordeste 28 Nordeste 0 -- -- 59
2020-03-13 15:00:00 21.9 15 Nordeste 32 Este 0 -- -- 57
2020-03-13 14:00:00 20.3 19 Este 36 Este 0 -- -- 67
2020-03-13 13:00:00 21 17 Nordeste 35 Nordeste 0 -- -- 64
2020-03-13 12:00:00 20.9 13 Nordeste 30 Este 0 -- -- 64
2020-03-13 11:00:00 21 17 Nordeste 30 Nordeste 0 -- -- 61
2020-03-13 10:00:00 19.8 20 Nordeste 32 Norte 0 -- -- 66
2020-03-13 09:00:00 19.1 16 Nordeste 31 Norte 0 -- -- 71
2020-03-13 08:00:00 17.6 12 Norte 21 Norte 0 -- -- 77
2020-03-13 07:00:00 17 12 Norte 19 Norte 0 -- -- 80
2020-03-13 06:00:00 17 12 Norte 22 Norte 0 -- -- 79
2020-03-13 05:00:00 17.3 13 Nordeste 32 Norte 0 -- -- 79
2020-03-13 04:00:00 17.5 17 Norte 28 Norte 0 -- -- 78
2020-03-13 03:00:00 17.6 18 Nordeste 30 Norte 0 -- -- 80
2020-03-13 02:00:00 17.9 16 Norte 32 Norte 0 -- -- 80
2020-03-13 01:00:00 18.7 15 Norte 30 Nordeste 0 -- -- 77
2020-03-13 00:00:00 19.2 8 Nordeste 26 Norte 0 -- -- 74
2020-03-12 23:00:00 19.6 13 Norte 24 Norte 0 -- -- 72
2020-03-12 22:00:00 20.3 15 Norte 27 Norte 0 -- -- 70
2020-03-12 21:00:00 21.5 10 Norte 20 Noroeste 0 -- -- 65
2020-03-12 20:00:00 22.6 9 Norte 19 Norte 0 -- -- 61
2020-03-12 19:00:00 21.4 3 Sur 10 Sudeste 0 -- -- 67
2020-03-12 18:00:00 22.3 7 Sudeste 19 Este 0 -- -- 65
2020-03-12 17:00:00 23.1 11 Sudeste 28 Nordeste 0 -- -- 60
2020-03-12 16:00:00 23.4 17 Este 31 Este 0 -- -- 57
2020-03-12 15:00:00 24.7 15 Este 27 Este 0 -- -- 50
2020-03-12 14:00:00 25.2 13 Este 28 Este 0 -- -- 38
2020-03-12 13:00:00 25 13 Este 32 Nordeste 0 -- -- 33
2020-03-12 12:00:00 23.7 20 Este 36 Nordeste 0 -- -- 38
2020-03-12 11:00:00 24.2 15 Este 33 Nordeste 0 -- -- 41
2020-03-12 10:00:00 24.2 16 Este 27 Nordeste 0 -- -- 33
2020-03-12 09:00:00 22.2 8 Nordeste 19 Noroeste 0 -- -- 46
2020-03-12 08:00:00 19.7 12 Nordeste 23 Nordeste 0 -- -- 54
2020-03-12 07:00:00 18.7 12 Norte 25 Norte 0 -- -- 58
2020-03-12 06:00:00 19.1 18 Norte 28 Norte 0 -- -- 58
2020-03-12 05:00:00 18.4 12 Nordeste 22 Noroeste 0 -- -- 66
2020-03-12 04:00:00 19.1 10 Norte 23 Norte 0 -- -- 62
2020-03-12 03:00:00 18.7 6 Nordeste 17 Norte 0 -- -- 67
2020-03-12 02:00:00 19.7 10 Norte 23 Norte 0 -- -- 58
2020-03-12 01:00:00 20 6 Norte 16 Noroeste 0 -- -- 67
2020-03-12 00:00:00 20.1 3 Norte 12 Noroeste 0 -- -- 69
2020-03-11 23:00:00 20.1 6 Este 12 Este 0 -- -- 74
2020-03-11 22:00:00 20.8 8 Sudeste 20 Norte 0 -- -- 72
2020-03-11 21:00:00 22.9 9 Noroeste 16 Noroeste 0 -- -- 52
2020-03-11 20:00:00 20.9 4 Este 12 Sudeste 0 -- -- 69
2020-03-11 19:00:00 20.9 5 Sudeste 14 Este 0 -- -- 67
2020-03-11 18:00:00 22.5 3 Sudoeste 10 Sudoeste 0 -- -- 69
2020-03-11 17:00:00 24 3 Sur 12 Sudeste 0 -- -- 53
2020-03-11 16:00:00 25.2 5 Sudeste 17 Sudeste 0 -- -- 56
2020-03-11 15:00:00 23.3 8 Sudeste 22 Este 0 -- -- 65
2020-03-11 14:00:00 23.4 9 Sudeste 25 Este 0 -- -- 56
2020-03-11 13:00:00 21.8 13 Este 30 Este 0 -- -- 64
2020-03-11 12:00:00 21.4 13 Este 28 Este 0 -- -- 64
2020-03-11 11:00:00 21.6 10 Este 22 Este 0 -- -- 68
2020-03-11 10:00:00 20.6 6 Sudeste 20 Norte 0 -- -- 68
2020-03-11 09:00:00 19.1 6 Este 18 Noroeste 0 -- -- 74
2020-03-11 08:00:00 16.3 5 Nordeste 14 Norte 0 -- -- 84
2020-03-11 07:00:00 15.4 5 Norte 15 Nordeste 0 -- -- 86
2020-03-11 06:00:00 16.1 10 Norte 19 Norte 0 -- -- 83
2020-03-11 05:00:00 16.4 7 Nordeste 14 Norte 0 -- -- 83
2020-03-11 04:00:00 16.7 5 Norte 13 Norte 0 -- -- 83
2020-03-11 03:00:00 16.4 5 Norte 12 Norte 0 -- -- 82
2020-03-11 02:00:00 16.9 6 Norte 13 Nordeste 0 -- -- 80
2020-03-11 01:00:00 17.2 0 Calma 24 Norte 0 -- -- 79
2020-03-11 00:00:00 17.8 18 Norte 25 Norte 0 -- -- 79
2020-03-10 23:00:00 18.4 13 Norte 28 Norte 0 -- -- 79
2020-03-10 22:00:00 19.1 12 Norte 20 Norte 0 -- -- 75
2020-03-10 21:00:00 19.3 7 Sur 12 Oeste 0 -- -- 80
2020-03-10 20:00:00 19.7 6 Sudoeste 14 Sudoeste 0 -- -- 76
2020-03-10 19:00:00 20.5 9 Sudoeste 18 Sudoeste 0 -- -- 72
2020-03-10 18:00:00 22.2 13 Sudoeste 22 Oeste 0 -- -- 62
2020-03-10 17:00:00 23.1 14 Sudoeste 20 Sudoeste 0 -- -- 60
2020-03-10 16:00:00 22.8 8 Sur 19 Sudeste 0 -- -- 66
2020-03-10 15:00:00 22.4 12 Sudeste 30 Este 0 -- -- 64
2020-03-10 14:00:00 21.3 21 Este 36 Este 0 -- -- 72
2020-03-10 13:00:00 20.3 20 Este 37 Este 0 -- -- 74
2020-03-10 12:00:00 20.4 19 Este 32 Este 0 -- -- 74
2020-03-10 11:00:00 20.2 17 Este 31 Este 0 -- -- 73
2020-03-10 10:00:00 21.4 7 Sudeste 18 Este 0 -- -- 67
2020-03-10 09:00:00 20.1 10 Norte 24 Norte 0 -- -- 68
2020-03-10 08:00:00 18 17 Norte 29 Norte 0 -- -- 75
2020-03-10 07:00:00 17.7 20 Norte 30 Norte 0 -- -- 72
2020-03-10 06:00:00 18.9 18 Norte 31 Norte 0 -- -- 55
2020-03-10 05:00:00 18.3 18 Norte 32 Nordeste 0 -- -- 60
2020-03-10 04:00:00 18.8 16 Norte 30 Norte 0 -- -- 54
2020-03-10 03:00:00 18 17 Norte 38 Norte 0 -- -- 68
2020-03-10 02:00:00 18.1 20 Norte 39 Norte 0 -- -- 71
2020-03-10 01:00:00 19 21 Norte 41 Norte 0 -- -- 63
2020-03-10 00:00:00 19.7 23 Norte 41 Norte 0 -- -- 54
2020-03-09 23:00:00 19.2 26 Norte 44 Norte 0 -- -- 61
2020-03-09 22:00:00 19.2 27 Norte 38 Norte 0 -- -- 66
2020-03-09 21:00:00 19.4 18 Norte 33 Norte 0 -- -- 67
2020-03-09 20:00:00 19.6 23 Norte 39 Norte 0 -- -- 70
2020-03-09 19:00:00 21.6 20 Norte 33 Norte 0 -- -- 56
2020-03-09 18:00:00 23.6 17 Norte 26 Norte 0 -- -- 52
2020-03-09 17:00:00 23.7 11 Este 24 Este 0 -- -- 54
2020-03-09 16:00:00 24 12 Este 27 Este 0 -- -- 52
2020-03-09 15:00:00 24.8 15 Este 26 Este 0 -- -- 48
2020-03-09 14:00:00 25 15 Este 24 Este 0 -- -- 41
2020-03-09 13:00:00 25 12 Este 21 Este 0 -- -- 43
2020-03-09 12:00:00 24.7 8 Este 31 Norte 0 -- -- 39
2020-03-09 11:00:00 24.6 16 Este 28 Este 0 -- -- 30
2020-03-09 10:00:00 24.7 6 Sudeste 28 Norte 0 -- -- 41
2020-03-09 09:00:00 22.1 10 Nordeste 22 Nordeste 0 -- -- 48
2020-03-09 08:00:00 19.2 13 Nordeste 21 Norte 0 -- -- 52
2020-03-09 07:00:00 18.5 14 Nordeste 22 Nordeste 0 -- -- 57
2020-03-09 06:00:00 18.6 9 Norte 20 Norte 0 -- -- 57
2020-03-09 05:00:00 18.1 14 Norte 31 Nordeste 0 -- -- 66
2020-03-09 04:00:00 17.9 23 Nordeste 34 Nordeste 0 -- -- 75
2020-03-09 03:00:00 18.1 20 Norte 36 Nordeste 0 -- -- 77
2020-03-09 02:00:00 18.2 17 Norte 28 Norte 0 -- -- 77
2020-03-09 01:00:00 18.6 19 Norte 35 Norte 0 -- -- 77
2020-03-09 00:00:00 19.1 22 Norte 43 Norte 0 -- -- 74
2020-03-08 23:00:00 20.2 25 Norte 37 Norte 0 -- -- 63
2020-03-08 22:00:00 22 23 Norte 35 Noroeste 0 -- -- 49
2020-03-08 21:00:00 22.7 18 Noroeste 30 Noroeste 0 -- -- 45
2020-03-08 20:00:00 24.3 18 Norte 28 Norte 0 -- -- 36
2020-03-08 19:00:00 26.9 15 Norte 26 Norte 0 -- -- 20
2020-03-08 18:00:00 24.4 4 Nordeste 18 Norte 0 -- -- 42
2020-03-08 17:00:00 29.4 9 Norte 23 Norte 0 -- -- 20
2020-03-08 16:00:00 28.1 12 Nordeste 23 Nordeste 0 -- -- 25
2020-03-08 15:00:00 27.2 10 Este 29 Nordeste 0 -- -- 22
2020-03-08 14:00:00 25.6 15 Nordeste 33 Nordeste 0 -- -- 29
2020-03-08 13:00:00 24.3 19 Nordeste 33 Nordeste 0 -- -- 37
2020-03-08 12:00:00 23.6 23 Nordeste 40 Este 0 -- -- 47
2020-03-08 11:00:00 22.3 27 Nordeste 41 Nordeste 0 -- -- 59
2020-03-08 10:00:00 21.3 29 Norte 40 Norte 0 -- -- 66
2020-03-08 09:00:00 19.9 28 Norte 39 Norte 0 -- -- 69
2020-03-08 08:00:00 18.6 25 Norte 39 Norte 0 -- -- 72
2020-03-08 07:00:00 17.9 26 Norte 40 Norte 0 -- -- 75
2020-03-08 06:00:00 17.7 25 Norte 41 Norte 0 -- -- 79
2020-03-08 05:00:00 17.6 20 Norte 32 Norte 0 -- -- 82
2020-03-08 04:00:00 17.6 17 Norte 29 Nordeste 0 -- -- 81
2020-03-08 03:00:00 17.7 15 Norte 30 Norte 0 -- -- 80
2020-03-08 02:00:00 17.8 18 Norte 29 Norte 0 -- -- 80
2020-03-08 01:00:00 17.8 15 Norte 30 Norte 0 -- -- 80
2020-03-08 00:00:00 18 14 Norte 28 Nordeste 0 -- -- 78
2020-03-07 23:00:00 18.1 16 Norte 27 Norte 0 -- -- 76
2020-03-07 22:00:00 18.5 20 Nordeste 32 Norte 0 -- -- 74
2020-03-07 21:00:00 18.7 18 Norte 33 Norte 0 -- -- 72
2020-03-07 20:00:00 19.3 15 Norte 31 Norte 0 -- -- 70
2020-03-07 19:00:00 20.5 18 Norte 30 Norte 0 -- -- 65
2020-03-07 18:00:00 22.7 18 Nordeste 32 Nordeste 0 -- -- 56
2020-03-07 17:00:00 23.9 21 Nordeste 30 Este 0 -- -- 51
2020-03-07 16:00:00 24.1 17 Nordeste 28 Nordeste 0 -- -- 47
2020-03-07 15:00:00 23.5 21 Nordeste 36 Nordeste 0 -- -- 48
2020-03-07 14:00:00 22.5 24 Nordeste 45 Nordeste 0 -- -- 52
2020-03-07 13:00:00 21.1 28 Nordeste 41 Nordeste 0 -- -- 58
2020-03-07 12:00:00 20.4 26 Nordeste 42 Nordeste 0 -- -- 61
2020-03-07 11:00:00 19.8 30 Nordeste 44 Nordeste 0 -- -- 61
2020-03-07 10:00:00 19.1 25 Nordeste 47 Nordeste 0 -- -- 64
2020-03-07 09:00:00 18.4 21 Nordeste 39 Norte 0 -- -- 67
2020-03-07 08:00:00 17 12 Nordeste 26 Norte 0 -- -- 72
2020-03-07 07:00:00 16.7 13 Nordeste 29 Norte 0 -- -- 72
2020-03-07 06:00:00 16.8 21 Nordeste 35 Nordeste 0 -- -- 72
2020-03-07 05:00:00 17 22 Nordeste 40 Nordeste 0 -- -- 70
2020-03-07 04:00:00 16.6 21 Norte 38 Norte 0 -- -- 70
2020-03-07 03:00:00 16.7 20 Norte 42 Norte 0 -- -- 69
2020-03-07 02:00:00 16.8 22 Norte 37 Norte 0 -- -- 67
2020-03-07 01:00:00 17 22 Nordeste 41 Norte 0 -- -- 66
2020-03-07 00:00:00 17.1 19 Nordeste 37 Norte 0 -- -- 66
2020-03-06 23:00:00 17.1 16 Nordeste 31 Nordeste 0 -- -- 67
2020-03-06 22:00:00 17.1 13 Norte 29 Norte 0 -- -- 63
2020-03-06 21:00:00 17.7 19 Norte 35 Norte 0 -- -- 61
2020-03-06 20:00:00 18.3 21 Nordeste 36 Nordeste 0 -- -- 61
2020-03-06 19:00:00 18.8 23 Nordeste 43 Norte 0 -- -- 61
2020-03-06 18:00:00 19.4 30 Nordeste 46 Nordeste 0 -- -- 59
2020-03-06 17:00:00 20.2 31 Nordeste 52 Norte 0 -- -- 54
2020-03-06 16:00:00 20.6 33 Nordeste 49 Norte 0 -- -- 55
2020-03-06 15:00:00 20.7 30 Nordeste 53 Nordeste 0 -- -- 53
2020-03-06 14:00:00 20.6 27 Nordeste 51 Nordeste 0 -- -- 54
2020-03-06 13:00:00 20.7 34 Nordeste 53 Norte 0 -- -- 54
2020-03-06 12:00:00 20 37 Nordeste 57 Norte 0 -- -- 55
2020-03-06 11:00:00 19.4 37 Nordeste 59 Nordeste 0 -- -- 58
2020-03-06 10:00:00 18.9 33 Nordeste 55 Nordeste 0 -- -- 57
2020-03-06 09:00:00 18 27 Nordeste 52 Nordeste 0 -- -- 62
2020-03-06 08:00:00 17.6 26 Nordeste 56 Nordeste 0 -- -- 65
2020-03-06 07:00:00 17.4 28 Nordeste 42 Nordeste 0 -- -- 67
2020-03-06 06:00:00 17.6 21 Nordeste 38 Norte 0 -- -- 77
2020-03-06 05:00:00 17.7 24 Nordeste 41 Norte 0 -- -- 80
2020-03-06 04:00:00 18.4 18 Nordeste 39 Norte 0 -- -- 77
2020-03-06 03:00:00 18.2 21 Nordeste 32 Nordeste 0 -- -- 79
2020-03-06 02:00:00 19.2 21 Nordeste 36 Nordeste 0 -- -- 73
2020-03-06 01:00:00 19.3 27 Nordeste 47 Nordeste 0 -- -- 71
2020-03-06 00:00:00 19.2 29 Nordeste 49 Nordeste 0 -- -- 71
2020-03-05 23:00:00 19.1 32 Nordeste 52 Norte 0 -- -- 68
2020-03-05 22:00:00 18.8 30 Nordeste 47 Nordeste 0 -- -- 69
2020-03-05 21:00:00 18.6 23 Nordeste 36 Nordeste 0 -- -- 71
2020-03-05 20:00:00 18.7 24 Nordeste 36 Nordeste 0 -- -- 73
2020-03-05 19:00:00 19 25 Nordeste 40 Nordeste 0 -- -- 71
2020-03-05 18:00:00 19.8 26 Nordeste 44 Nordeste 0 -- -- 67
2020-03-05 17:00:00 21 26 Nordeste 38 Nordeste 0 -- -- 63
2020-03-05 16:00:00 21.6 24 Nordeste 38 Nordeste 0 -- -- 61
2020-03-05 15:00:00 22 24 Nordeste 39 Nordeste 0 -- -- 59
2020-03-05 14:00:00 22.4 19 Nordeste 37 Nordeste 0 -- -- 59
2020-03-05 13:00:00 21.5 23 Nordeste 35 Nordeste 0 -- -- 61
2020-03-05 12:00:00 20.7 22 Nordeste 39 Nordeste 0 -- -- 63
2020-03-05 11:00:00 20.4 22 Nordeste 34 Nordeste 0 -- -- 66
2020-03-05 10:00:00 19.6 15 Nordeste 28 Nordeste 0 -- -- 70
2020-03-05 09:00:00 18.3 13 Nordeste 22 Norte 0 -- -- 77
2020-03-05 08:00:00 16.9 14 Nordeste 23 Nordeste 0 -- -- 82
2020-03-05 07:00:00 16.3 10 Norte 18 Norte 0 -- -- 85
2020-03-05 06:00:00 17 12 Norte 22 Norte 0 -- -- 83
2020-03-05 05:00:00 17.1 10 Norte 26 Norte 0 -- -- 83
2020-03-05 04:00:00 17 18 Norte 31 Norte 0 -- -- 83
2020-03-05 03:00:00 17.4 17 Norte 35 Norte 0 -- -- 81
2020-03-05 02:00:00 17.8 22 Norte 33 Norte 0 -- -- 81
2020-03-05 01:00:00 18.2 17 Norte 29 Norte 0 -- -- 79
2020-03-05 00:00:00 18.4 15 Nordeste 30 Norte 0 -- -- 78
2020-03-04 23:00:00 19.3 15 Norte 26 Norte 0 -- -- 70
2020-03-04 22:00:00 19.7 14 Noroeste 31 Norte 0 -- -- 71
2020-03-04 21:00:00 20.3 14 Norte 30 Norte 0 -- -- 69
2020-03-04 20:00:00 20.9 18 Norte 29 Norte 0 -- -- 66
2020-03-04 19:00:00 22.6 8 Nordeste 19 Nordeste 0 -- -- 60
2020-03-04 18:00:00 22 10 Este 24 Este 0 -- -- 69
2020-03-04 17:00:00 22.5 10 Este 28 Este 0 -- -- 67
2020-03-04 16:00:00 24.7 16 Este 35 Este 0 -- -- 52
2020-03-04 15:00:00 22.8 19 Este 33 Este 0 -- -- 57
2020-03-04 14:00:00 25.2 16 Nordeste 31 Este 0 -- -- 46
2020-03-04 13:00:00 22.6 17 Este 39 Este 0 -- -- 61
2020-03-04 12:00:00 21.9 19 Este 34 Sudeste 0 -- -- 64
2020-03-04 11:00:00 24 4 Sudeste 20 Norte 0 -- -- 50
2020-03-04 10:00:00 23.5 11 Norte 22 Norte 0 -- -- 43
2020-03-04 09:00:00 21.9 12 Norte 31 Norte 0 -- -- 50
2020-03-04 08:00:00 20.4 17 Norte 36 Nordeste 0 -- -- 51
2020-03-04 07:00:00 19.5 20 Norte 37 Norte 0 -- -- 53
2020-03-04 06:00:00 19.1 22 Norte 40 Norte 0 -- -- 56
2020-03-04 05:00:00 19 22 Norte 37 Nordeste 0 -- -- 57
2020-03-04 04:00:00 18.8 18 Norte 32 Norte 0 -- -- 61
2020-03-04 03:00:00 19 16 Norte 33 Norte 0 -- -- 56
2020-03-04 02:00:00 19 19 Norte 37 Norte 0 -- -- 56
2020-03-04 01:00:00 19.8 18 Norte 31 Norte 0 -- -- 47
2020-03-04 00:00:00 19.9 17 Norte 28 Norte 0 -- -- 47
2020-03-03 23:00:00 20.2 18 Norte 30 Norte 0 -- -- 46
2020-03-03 22:00:00 20.1 14 Norte 25 Norte 0 -- -- 48
2020-03-03 21:00:00 20.2 12 Norte 20 Norte 0 -- -- 57
2020-03-03 20:00:00 19.8 12 Norte 24 Norte 0 -- -- 70
2020-03-03 19:00:00 20.3 17 Nordeste 28 Nordeste 0 -- -- 70
2020-03-03 18:00:00 21.1 19 Nordeste 30 Nordeste 0 -- -- 68
2020-03-03 17:00:00 20.8 20 Este 40 Este 0 -- -- 73
2020-03-03 16:00:00 20.8 21 Este 41 Este 0 -- -- 73
2020-03-03 15:00:00 20.7 23 Este 45 Este 0 -- -- 74
2020-03-03 14:00:00 20.7 21 Este 44 Este 0 -- -- 73
2020-03-03 13:00:00 22.6 14 Nordeste 36 Nordeste 0 -- -- 61
2020-03-03 12:00:00 21.7 18 Nordeste 30 Nordeste 0 -- -- 63
2020-03-03 11:00:00 20.5 20 Norte 31 Nordeste 0 -- -- 68
2020-03-03 10:00:00 19.8 15 Nordeste 31 Nordeste 0 -- -- 72
2020-03-03 09:00:00 18.7 21 Nordeste 28 Este 0 -- -- 75
2020-03-03 08:00:00 18.2 17 Nordeste 32 Nordeste 0 -- -- 77
2020-03-03 07:00:00 17.6 15 Nordeste 24 Nordeste 0 -- -- 79
2020-03-03 06:00:00 17.4 12 Nordeste 26 Norte 0 -- -- 79
2020-03-03 05:00:00 17.3 13 Nordeste 24 Nordeste 0 -- -- 80
2020-03-03 04:00:00 17.3 6 Nordeste 13 Norte 0 -- -- 78
2020-03-03 03:00:00 17.8 6 Norte 17 Norte 0 -- -- 75
2020-03-03 02:00:00 17.9 9 Norte 30 Nordeste 0 -- -- 77
2020-03-03 01:00:00 17.9 10 Nordeste 22 Nordeste 0 -- -- 73
2020-03-03 00:00:00 18 8 Nordeste 18 Nordeste 0 -- -- 71